^^
Grace C. Lehan Memorial Weather Station Historical Data
Daily Summary for October 21, 2021 Units:  Metric    English   Both
Daily Weekly Monthly Yearly
  High: Low: Average:
Temperature: 24.6 °C 12.4 °C 18.6 °C
Dew Point: 14.8 °C 10.9 °C 12.5 °C
Humidity: 92% 47.2% 70%
Wind Speed: 4.7km/h 0km/h 0.5km/h
Wind Gust: 19.3km/h - -
Wind- - SW
Pressure: 1015.5 hPa 1010.4 hPa -
Precipitation: 0 mm    
 
 
Tabular Data for October 21, 2021
Time Temperature Dew Point Pressure Wind Wind Speed Wind Gust Humidity Rainfall Rate (Hourly) solar
00:09 16.8 °C 12.1 °C 1014.4 hPa Calm     74% 0 mm 0 W/m2
00:14 16.8 °C 11.9 °C 1014.4 hPa Calm     73.2% 0 mm 0 W/m2
00:19 16.7 °C 11.9 °C 1014.4 hPa Calm     72.9% 0 mm 0 W/m2
00:24 16.7 °C 11.7 °C 1014.4 hPa Calm     72.3% 0 mm 0 W/m2
00:29 16.7 °C 11.7 °C 1014.4 hPa Calm     72.2% 0 mm 0 W/m2
00:34 16.7 °C 11.6 °C 1014.4 hPa Calm     72% 0 mm 0 W/m2
00:39 16.6 °C 11.6 °C 1014.4 hPa Calm     72% 0 mm 0 W/m2
00:44 16.6 °C 11.8 °C 1014.4 hPa Calm     73.5% 0 mm 0 W/m2
00:49 16.6 °C 11.9 °C 1014.4 hPa Calm     74% 0 mm 0 W/m2
00:54 16.5 °C 11.8 °C 1014.4 hPa Calm     73.6% 0 mm 0 W/m2
00:59 16.5 °C 11.6 °C 1014.4 hPa Calm     73% 0 mm 0 W/m2
01:04 16.4 °C 11.6 °C 1014.4 hPa Calm     73% 0 mm 0 W/m2
01:09 16.4 °C 11.6 °C 1014.4 hPa Calm     73.4% 0 mm 0 W/m2
01:14 16.3 °C 11.7 °C 1014.4 hPa Calm     74% 0 mm 0 W/m2
01:19 16.3 °C 11.7 °C 1014.4 hPa Calm     74% 0 mm 0 W/m2
01:24 16.2 °C 11.6 °C 1014.4 hPa Calm     74% 0 mm 0 W/m2
01:29 16.2 °C 11.5 °C 1014.4 hPa Calm     74% 0 mm 0 W/m2
01:34 16.1 °C 11.6 °C 1014.4 hPa Calm     74.9% 0 mm 0 W/m2
01:39 16 °C 11.6 °C 1014.1 hPa Calm     75.2% 0 mm 0 W/m2
01:44 15.9 °C 11.5 °C 1014.1 hPa Calm     75% 0 mm 0 W/m2
01:49 15.9 °C 11.5 °C 1014.1 hPa Calm     75.3% 0 mm 0 W/m2
01:54 15.8 °C 11.6 °C 1014.1 hPa Calm     76% 0 mm 0 W/m2
01:59 15.8 °C 11.6 °C 1014.1 hPa Calm     76% 0 mm 0 W/m2
02:04 15.7 °C 11.6 °C 1014.1 hPa Calm     76.3% 0 mm 0 W/m2
02:09 15.7 °C 11.7 °C 1014.1 hPa Calm     77% 0 mm 0 W/m2
02:14 15.7 °C 11.5 °C 1014.1 hPa Calm     76.1% 0 mm 0 W/m2
02:19 15.7 °C 11.4 °C 1014.1 hPa Calm     76% 0 mm 0 W/m2
02:24 15.7 °C 11.7 °C 1014.1 hPa Calm     77.5% 0 mm 0 W/m2
02:29 15.7 °C 11.8 °C 1014.1 hPa Calm     77.9% 0 mm 0 W/m2
02:34 15.6 °C 11.6 °C 1014.1 hPa Calm     77% 0 mm 0 W/m2
02:39 15.6 °C 11.6 °C 1014.4 hPa Calm     77% 0 mm 0 W/m2
02:44 15.6 °C 11.6 °C 1014.4 hPa Calm     77.2% 0 mm 0 W/m2
02:49 15.6 °C 11.8 °C 1014.4 hPa Calm     78% 0 mm 0 W/m2
02:54 15.6 °C 11.7 °C 1014.4 hPa Calm     78% 0 mm 0 W/m2
02:59 15.5 °C 11.7 °C 1014.4 hPa Calm     78% 0 mm 0 W/m2
03:04 15.4 °C 11.6 °C 1014.4 hPa Calm     78% 0 mm 0 W/m2
03:09 15.4 °C 11.6 °C 1014.4 hPa Calm     78% 0 mm 0 W/m2
03:14 15.3 °C 11.5 °C 1014.4 hPa Calm     78% 0 mm 0 W/m2
03:19 15.2 °C 11.5 °C 1014.4 hPa Calm     78.4% 0 mm 0 W/m2
03:24 15.2 °C 11.6 °C 1014.4 hPa Calm     79% 0 mm 0 W/m2
03:29 15.1 °C 11.8 °C 1014.4 hPa Calm     80.7% 0 mm 0 W/m2
03:34 14.9 °C 11.9 °C 1014.4 hPa Calm     81.7% 0 mm 0 W/m2
03:39 14.8 °C 11.8 °C 1014.4 hPa Calm     82.2% 0 mm 0 W/m2
03:44 14.6 °C 11.8 °C 1014.4 hPa Calm     82.9% 0 mm 0 W/m2
03:49 14.5 °C 11.7 °C 1014.4 hPa Calm     83.1% 0 mm 0 W/m2
03:54 14.4 °C 11.8 °C 1014.4 hPa Calm     84% 0 mm 0 W/m2
03:59 14.4 °C 11.7 °C 1014.4 hPa Calm     84% 0 mm 0 W/m2
04:00 14.3 °C 11.7 °C 1014.4 hPa Calm     84% 0 mm 0 W/m2
04:09 14.3 °C 11.8 °C 1014.4 hPa Calm     84.9% 0 mm 0 W/m2
04:14 14.2 °C 11.6 °C 1014.4 hPa Calm     84.3% 0 mm 0 W/m2
04:19 14.2 °C 11.7 °C 1014.4 hPa Calm     85% 0 mm 0 W/m2
04:24 14.1 °C 11.6 °C 1014.4 hPa Calm     85% 0 mm 0 W/m2
04:29 14 °C 11.7 °C 1014.4 hPa Calm     85.7% 0 mm 0 W/m2
04:34 13.9 °C 11.6 °C 1014.1 hPa Calm     86% 0 mm 0 W/m2
04:39 13.8 °C 11.6 °C 1014.4 hPa Calm     86% 0 mm 0 W/m2
04:44 13.8 °C 11.5 °C 1014.1 hPa Calm     86% 0 mm 0 W/m2
04:49 13.7 °C 11.4 °C 1014.1 hPa Calm     86% 0 mm 0 W/m2
04:54 13.6 °C 11.3 °C 1014.1 hPa Calm     86% 0 mm 0 W/m2
04:59 13.6 °C 11.3 °C 1014.4 hPa Calm     86.6% 0 mm 0 W/m2
05:04 13.5 °C 11.4 °C 1014.4 hPa Calm     87% 0 mm 0 W/m2
05:09 13.4 °C 11.4 °C 1014.4 hPa Calm     87.5% 0 mm 0 W/m2
05:14 13.3 °C 11.4 °C 1014.4 hPa Calm     88% 0 mm 0 W/m2
05:19 13.3 °C 11.3 °C 1014.4 hPa Calm     88% 0 mm 0 W/m2
05:24 13.2 °C 11.3 °C 1014.4 hPa Calm     88% 0 mm 0 W/m2
05:29 13.1 °C 11.2 °C 1014.4 hPa Calm     88.2% 0 mm 0 W/m2
05:34 13.1 °C 11.3 °C 1014.4 hPa Calm     89% 0 mm 0 W/m2
05:39 13.1 °C 11.3 °C 1014.8 hPa Calm     89% 0 mm 0 W/m2
05:44 13.1 °C 11.3 °C 1014.8 hPa Calm     89.4% 0 mm 0 W/m2
05:49 13.1 °C 11.4 °C 1014.8 hPa Calm     90% 0 mm 0 W/m2
05:54 13.1 °C 11.4 °C 1014.8 hPa Calm     90% 0 mm 0 W/m2
05:59 13.1 °C 11.4 °C 1014.8 hPa Calm     90% 0 mm 0 W/m2
06:04 13.1 °C 11.4 °C 1014.4 hPa Calm     90% 0 mm 0 W/m2
06:09 13.1 °C 11.4 °C 1014.4 hPa Calm     90% 0 mm 0 W/m2
06:14 13.1 °C 11.4 °C 1014.4 hPa Calm     90% 0 mm 0 W/m2
06:19 13 °C 11.4 °C 1014.4 hPa Calm     90% 0 mm 0 W/m2
06:24 12.9 °C 11.3 °C 1014.4 hPa Calm     90% 0 mm 0 W/m2
06:29 12.9 °C 11.3 °C 1014.4 hPa Calm     90% 0 mm 0 W/m2
06:34 12.8 °C 11.2 °C 1014.4 hPa Calm     90% 0 mm 0 W/m2
06:39 12.8 °C 11.2 °C 1014.4 hPa Calm     90% 0 mm 0 W/m2
06:44 12.8 °C 11.2 °C 1014.4 hPa Calm     90% 0 mm 0 W/m2
06:49 12.7 °C 11.1 °C 1014.4 hPa Calm     90% 0 mm 0 W/m2
06:54 12.7 °C 11.1 °C 1014.4 hPa Calm     90% 0 mm 0 W/m2
06:59 12.6 °C 11 °C 1014.4 hPa Calm     90% 0 mm 0 W/m2
07:04 12.6 °C 10.9 °C 1014.4 hPa Calm     90% 0 mm 0 W/m2
07:09 12.6 °C 11.1 °C 1014.4 hPa Calm     91% 0 mm 0 W/m2
07:14 12.6 °C 11.1 °C 1014.8 hPa Calm     91% 0 mm 5 W/m2
07:19 12.5 °C 11.1 °C 1014.8 hPa Calm     91% 0 mm 9 W/m2
07:24 12.5 °C 11.1 °C 1014.8 hPa Calm     91% 0 mm 12 W/m2
07:29 12.4 °C 11.1 °C 1014.8 hPa Calm     91% 0 mm 18 W/m2
07:34 12.4 °C 11 °C 1015.1 hPa Calm     91% 0 mm 21 W/m2
07:39 12.4 °C 11 °C 1015.1 hPa Calm     91% 0 mm 28 W/m2
07:44 12.4 °C 11 °C 1015.1 hPa Calm     91% 0 mm 33 W/m2
07:49 12.4 °C 11 °C 1015.1 hPa Calm     91% 0 mm 40 W/m2
07:54 12.5 °C 11.2 °C 1015.1 hPa Calm     91.7% 0 mm 47 W/m2
07:59 12.6 °C 11.3 °C 1015.5 hPa Calm     92% 0 mm 49 W/m2
08:00 12.7 °C 11.4 °C 1015.1 hPa Calm     92% 0 mm 49 W/m2
08:09 12.9 °C 11.7 °C 1015.5 hPa Calm     92% 0 mm 60 W/m2
08:14 13.1 °C 11.8 °C 1015.5 hPa Calm     92% 0 mm 69 W/m2
08:19 13.2 °C 11.9 °C 1015.5 hPa Calm     91.8% 0 mm 67 W/m2
08:24 13.4 °C 12 °C 1015.5 hPa Calm     91.2% 0 mm 67 W/m2
08:29 13.7 °C 12.2 °C 1015.5 hPa Calm     90.8% 0 mm 74 W/m2
08:34 13.9 °C 12.3 °C 1015.5 hPa Calm     90% 0 mm 95 W/m2
08:39 14.1 °C 12.4 °C 1015.5 hPa Calm     89.4% 0 mm 95 W/m2
08:44 14.3 °C 12.5 °C 1015.5 hPa Calm     88.9% 0 mm 102 W/m2
08:49 14.6 °C 12.6 °C 1015.1 hPa Calm     88% 0 mm 218 W/m2
08:54 14.9 °C 12.9 °C 1015.1 hPa Calm     87.9% 0 mm 227 W/m2
08:59 15.3 °C 13.1 °C 1015.1 hPa Calm     86.8% 0 mm 206 W/m2
09:04 15.7 °C 13.2 °C 1015.1 hPa Calm     85.1% 0 mm 279 W/m2
09:09 16.2 °C 13.3 °C 1015.1 hPa Calm     83.5% 0 mm 313 W/m2
09:14 16.8 °C 13.6 °C 1015.1 hPa Calm     81.5% 0 mm 343 W/m2
09:19 17.4 °C 13.8 °C 1015.1 hPa Calm     79.6% 0 mm 334 W/m2
09:24 18 °C 13.9 °C 1015.1 hPa Calm     77% 0 mm 348 W/m2
09:29 18.6 °C 14.2 °C 1015.1 hPa Calm     76% 0 mm 350 W/m2
09:34 19 °C 14.2 °C 1015.1 hPa Calm     73.9% 0 mm 392 W/m2
09:39 19.3 °C 14.2 °C 1015.1 hPa Calm     72% 0 mm 401 W/m2
09:44 19.6 °C 14.3 °C 1015.1 hPa Calm     71.4% 0 mm 401 W/m2
09:49 19.9 °C 14.4 °C 1014.8 hPa Calm     70.7% 0 mm 427 W/m2
09:54 20.2 °C 14.4 °C 1014.8 hPa Calm     69.3% 0 mm 427 W/m2
09:59 20.5 °C 14.6 °C 1014.8 hPa Calm     68.9% 0 mm 431 W/m2
10:04 20.8 °C 14.4 °C 1014.8 hPa Calm     66.9% 0 mm 432 W/m2
10:09 21.1 °C 14.5 °C 1014.8 hPa Calm     65.9% 0 mm 492 W/m2
10:14 21.3 °C 14.3 °C 1014.8 hPa Calm     64.3% 0 mm 504 W/m2
10:19 21.6 °C 14.5 °C 1014.8 hPa Calm     64% 0 mm 570 W/m2
10:24 21.9 °C 14.7 °C 1014.8 hPa Calm     63.4% 0 mm 598 W/m2
10:29 22.2 °C 14.8 °C 1014.8 hPa Calm     62.9% 0 mm 568 W/m2
10:34 22.4 °C 14.8 °C 1014.8 hPa Calm     61.9% 0 mm 598 W/m2
10:39 22.7 °C 14.4 °C 1014.8 hPa Calm     59.5% 0 mm 548 W/m2
10:44 22.9 °C 14.4 °C 1014.8 hPa Calm     58.7% 0 mm 647 W/m2
10:49 23.2 °C 14.5 °C 1014.8 hPa Calm   1.6 km/h 58% 0 mm 708 W/m2
10:54 23.4 °C 14.2 °C 1014.4 hPa West 0.2 km/h 3.2 km/h 56.3% 0 mm 708 W/m2
10:59 23.3 °C 14 °C 1014.4 hPa Calm   3.2 km/h 56% 0 mm 689 W/m2
11:04 22.9 °C 13.9 °C 1014.4 hPa West 0.2 km/h 4.8 km/h 56.6% 0 mm 250 W/m2
11:09 22.5 °C 13.8 °C 1014.1 hPa Calm   4.8 km/h 57.9% 0 mm 243 W/m2
11:14 22.1 °C 13.8 °C 1014.1 hPa Calm   4.8 km/h 59.3% 0 mm 279 W/m2
11:19 21.9 °C 14.1 °C 1014.1 hPa WSW 0.2 km/h 4.8 km/h 61.2% 0 mm 290 W/m2
11:24 22.2 °C 14.3 °C 1014.1 hPa WSW 0.2 km/h 4.8 km/h 61% 0 mm 338 W/m2
11:29 22.6 °C 14.4 °C 1014.1 hPa Calm   4.8 km/h 60% 0 mm 278 W/m2
11:34 22.8 °C 14.4 °C 1013.8 hPa Calm   4.8 km/h 58.8% 0 mm 445 W/m2
11:39 23.2 °C 14.4 °C 1013.8 hPa SW 0.6 km/h 6.4 km/h 57.9% 0 mm 445 W/m2
11:44 23.4 °C 14.3 °C 1013.8 hPa South 0.5 km/h 6.4 km/h 56.8% 0 mm 580 W/m2
11:49 23.6 °C 14.1 °C 1013.8 hPa South 0.5 km/h 6.4 km/h 55.2% 0 mm 610 W/m2
11:54 23.6 °C 14.1 °C 1013.8 hPa Calm   6.4 km/h 55% 0 mm 613 W/m2
11:59 23.6 °C 14.2 °C 1013.8 hPa South 0.2 km/h 6.4 km/h 55.5% 0 mm 598 W/m2
12:00 23.7 °C 13.8 °C 1013.8 hPa Calm   6.4 km/h 54% 0 mm 545 W/m2
12:09 23.9 °C 14.5 °C 1013.8 hPa Calm   1.6 km/h 55.4% 0 mm 599 W/m2
12:14 24.2 °C 14.1 °C 1013.8 hPa SSW 0.2 km/h 1.6 km/h 53.3% 0 mm 301 W/m2
12:19 24.3 °C 14 °C 1013.8 hPa Calm   1.6 km/h 52.8% 0 mm 301 W/m2
12:24 24.3 °C 13.8 °C 1013.8 hPa SSW 0.2 km/h 3.2 km/h 52.1% 0 mm 272 W/m2
12:29 24.1 °C 14.1 °C 1013.8 hPa SW 0.5 km/h 4.8 km/h 53.4% 0 mm 341 W/m2
12:34 24.1 °C 14.2 °C 1013.8 hPa South 1.4 km/h 9.7 km/h 54% 0 mm 322 W/m2
12:39 24 °C 14.1 °C 1013.8 hPa SSW 0.6 km/h 9.7 km/h 53.9% 0 mm 592 W/m2
12:44 23.9 °C 13.9 °C 1013.4 hPa WSW 1.4 km/h 9.7 km/h 53.4% 0 mm 355 W/m2
12:49 24 °C 13.9 °C 1013.4 hPa WSW 0.2 km/h 9.7 km/h 53.3% 0 mm 156 W/m2
12:54 24.1 °C 13.5 °C 1013.1 hPa SW 1.4 km/h 9.7 km/h 51.7% 0 mm 74 W/m2
12:59 24 °C 12.9 °C 1013.1 hPa SW 4.3 km/h 14.5 km/h 49.9% 0 mm 137 W/m2
13:04 23.9 °C 13 °C 1013.1 hPa WSW 2.3 km/h 14.5 km/h 50.4% 0 mm 232 W/m2
13:09 24 °C 13.7 °C 1013.1 hPa WSW 1.6 km/h 11.3 km/h 52.3% 0 mm 455 W/m2
13:14 24.1 °C 13.6 °C 1012.8 hPa SW 2.7 km/h 11.3 km/h 51.8% 0 mm 555 W/m2
13:19 24.2 °C 13.7 °C 1012.8 hPa SW 1.3 km/h 11.3 km/h 52.1% 0 mm 408 W/m2
13:24 24.2 °C 13.7 °C 1012.8 hPa SW 1.1 km/h 11.3 km/h 52% 0 mm 199 W/m2
13:29 24.2 °C 13.9 °C 1012.4 hPa SW 2.6 km/h 11.3 km/h 52.7% 0 mm 169 W/m2
13:34 24.2 °C 13.7 °C 1012.4 hPa SW 1 km/h 11.3 km/h 52.2% 0 mm 153 W/m2
13:39 24.1 °C 13.4 °C 1012.4 hPa SSW 4 km/h 14.5 km/h 51.5% 0 mm 606 W/m2
13:44 24.1 °C 13.4 °C 1012.4 hPa WSW 2.7 km/h 14.5 km/h 51.3% 0 mm 606 W/m2
13:49 24.2 °C 13.3 °C 1012.4 hPa SW 1.9 km/h 14.5 km/h 50.8% 0 mm 297 W/m2
13:54 24.1 °C 13.1 °C 1012.4 hPa SW 4.7 km/h 19.3 km/h 50% 0 mm 390 W/m2
13:59 24.1 °C 13.5 °C 1012.4 hPa WSW 1 km/h 19.3 km/h 51.5% 0 mm 132 W/m2
14:04 24.1 °C 13.3 °C 1012.4 hPa WSW 2.9 km/h 19.3 km/h 50.9% 0 mm 132 W/m2
14:09 24.1 °C 13.2 °C 1012.1 hPa WSW 2.4 km/h 16.1 km/h 50.6% 0 mm 243 W/m2
14:14 24.1 °C 13.2 °C 1012.1 hPa SW 1.8 km/h 16.1 km/h 50.5% 0 mm 127 W/m2
14:19 24.2 °C 13.1 °C 1012.1 hPa West 1.1 km/h 16.1 km/h 50% 0 mm 186 W/m2
14:24 24.3 °C 13.3 °C 1012.1 hPa SW 4.7 km/h 17.7 km/h 50.4% 0 mm 380 W/m2
14:29 24.4 °C 12.9 °C 1012.1 hPa SW 1.4 km/h 17.7 km/h 48.7% 0 mm 237 W/m2
14:34 24.4 °C 13.1 °C 1011.7 hPa SSW 0.8 km/h 17.7 km/h 49.3% 0 mm 130 W/m2
14:39 24.4 °C 12.9 °C 1011.7 hPa SW 0.6 km/h 6.4 km/h 48.8% 0 mm 151 W/m2
14:44 24.5 °C 13.3 °C 1011.7 hPa SW 0.6 km/h 6.4 km/h 49.8% 0 mm 216 W/m2
14:49 24.6 °C 13.1 °C 1011.4 hPa SW 0.6 km/h 6.4 km/h 48.8% 0 mm 146 W/m2
14:54 24.6 °C 12.9 °C 1011.4 hPa SW 1.4 km/h 8 km/h 48.3% 0 mm 241 W/m2
14:59 24.6 °C 13.2 °C 1011.4 hPa WSW 0.2 km/h 8 km/h 49% 0 mm 135 W/m2
15:04 24.6 °C 13.1 °C 1011.4 hPa SW 1.1 km/h 9.7 km/h 48.7% 0 mm 163 W/m2
15:09 24.6 °C 12.9 °C 1011.4 hPa SSW 1 km/h 9.7 km/h 48.1% 0 mm 149 W/m2
15:14 24.6 °C 12.6 °C 1011.4 hPa South 1.1 km/h 9.7 km/h 47.2% 0 mm 248 W/m2
15:19 24.5 °C 12.6 °C 1011.1 hPa South 0.5 km/h 9.7 km/h 47.4% 0 mm 221 W/m2
15:24 24.5 °C 12.6 °C 1011.1 hPa SSW 1 km/h 9.7 km/h 47.5% 0 mm 355 W/m2
15:29 24.4 °C 12.5 °C 1011.1 hPa SSW 1.9 km/h 9.7 km/h 47.5% 0 mm 223 W/m2
15:34 24.2 °C 12.4 °C 1011.1 hPa SW 1.3 km/h 9.7 km/h 47.5% 0 mm 123 W/m2
15:39 24 °C 12.6 °C 1011.1 hPa WSW 1.1 km/h 11.3 km/h 48.8% 0 mm 109 W/m2
15:44 23.8 °C 12.5 °C 1011.1 hPa Calm   11.3 km/h 49.2% 0 mm 118 W/m2
15:49 23.6 °C 12.3 °C 1011.1 hPa WSW 0.2 km/h 11.3 km/h 49% 0 mm 134 W/m2
15:54 23.4 °C 12.1 °C 1011.1 hPa Calm   11.3 km/h 49% 0 mm 139 W/m2
15:59 23.3 °C 12.3 °C 1011.1 hPa SW 0.2 km/h 11.3 km/h 50% 0 mm 137 W/m2
16:00 23.3 °C 12.3 °C 1010.7 hPa Calm   11.3 km/h 50% 0 mm 86 W/m2
16:09 23.1 °C 12.2 °C 1010.7 hPa SSW 0.5 km/h 4.8 km/h 50.3% 0 mm 114 W/m2
16:14 23 °C 12.1 °C 1010.7 hPa SSW 0.3 km/h 4.8 km/h 50% 0 mm 123 W/m2
16:19 22.9 °C 12.4 °C 1010.7 hPa SSW 1.1 km/h 9.7 km/h 51.3% 0 mm 120 W/m2
16:24 22.9 °C 12.2 °C 1010.7 hPa South 1.8 km/h 9.7 km/h 50.6% 0 mm 100 W/m2
16:29 22.8 °C 12.2 °C 1010.7 hPa South 1.4 km/h 9.7 km/h 51% 0 mm 77 W/m2
16:34 22.8 °C 12.2 °C 1010.4 hPa South 0.5 km/h 9.7 km/h 51.1% 0 mm 93 W/m2
16:39 22.7 °C 12.4 °C 1010.7 hPa South 0.6 km/h 4.8 km/h 52.1% 0 mm 91 W/m2
16:44 22.7 °C 12.2 °C 1010.7 hPa South 0.6 km/h 6.4 km/h 51.4% 0 mm 72 W/m2
16:49 22.7 °C 12.3 °C 1010.4 hPa South 1.1 km/h 6.4 km/h 52% 0 mm 53 W/m2
16:54 22.6 °C 12.4 °C 1010.4 hPa South 1.6 km/h 6.4 km/h 52.7% 0 mm 47 W/m2
16:59 22.4 °C 12.5 °C 1010.4 hPa South 1.8 km/h 11.3 km/h 53.4% 0 mm 44 W/m2
17:04 22.2 °C 12.4 °C 1010.4 hPa SSE 1.1 km/h 11.3 km/h 53.7% 0 mm 23 W/m2
17:09 22 °C 12.3 °C 1010.4 hPa South 2.1 km/h 8 km/h 54% 0 mm 23 W/m2
17:14 21.8 °C 12.4 °C 1010.4 hPa SSW 0.6 km/h 8 km/h 55.5% 0 mm 23 W/m2
17:19 21.6 °C 12.6 °C 1010.4 hPa South 0.2 km/h 8 km/h 56.6% 0 mm 28 W/m2
17:24 21.5 °C 12.6 °C 1010.4 hPa South 1.6 km/h 11.3 km/h 57% 0 mm 28 W/m2
17:29 21.4 °C 12.7 °C 1010.4 hPa South 0.6 km/h 11.3 km/h 57.6% 0 mm 25 W/m2
17:34 21.3 °C 12.8 °C 1010.4 hPa South 0.8 km/h 11.3 km/h 58.6% 0 mm 23 W/m2
17:39 21.2 °C 12.9 °C 1010.4 hPa South 0.2 km/h 6.4 km/h 59% 0 mm 19 W/m2
17:43 21.1 °C 12.8 °C 1010.4 hPa South 1 km/h 8 km/h 59% 0 mm 14 W/m2
Hartford County Weather
Compliments of Weather Underground - 4 mb